Time;durP1;ratioP1;P1;durP2;ratioP2;P2;SDS_P1;SDS_P2;PMS_P1;PMS_P2;Temp;Humidity;BMP_temperature;BMP_pressure;BME280_temperature;BME280_humidity;BME280_pressure;Samples;Min_cycle;Max_cycle;Signal;HPM_P1;HPM_P2
2023/06/28 00:01:11;;;;;;;3.03;1.20;;;;;;;;;;8338936;28;20284;-61
2023/06/28 00:05:12;;;;;;;3.13;1.30;;;;;;;;;;8339298;28;20028;-61
2023/06/28 00:09:12;;;;;;;3.80;1.50;;;;;;;;;;8339975;28;20364;-61
2023/06/28 00:13:12;;;;;;;7.03;1.50;;;;;;;;;;8339001;28;20032;-61
2023/06/28 00:17:13;;;;;;;2.90;1.30;;;;;;;;;;8348334;28;20843;-61
2023/06/28 00:21:13;;;;;;;6.05;1.50;;;;;;;;;;8346801;28;20036;-60
2023/06/28 00:25:14;;;;;;;3.67;1.30;;;;;;;;;;8334211;28;20032;-60
2023/06/28 00:29:14;;;;;;;3.75;1.15;;;;;;;;;;8338238;28;20520;-60
2023/06/28 00:33:19;;;;;;;2.40;1.30;;;;;;;;;;8338073;28;20036;-60
2023/06/28 00:37:20;;;;;;;2.25;1.15;;;;;;;;;;8349415;28;20032;-60
2023/06/28 00:41:20;;;;;;;3.03;1.30;;;;;;;;;;8345013;28;20537;-60
2023/06/28 00:45:20;;;;;;;2.67;1.27;;;;;;;;;;8336617;28;20036;-60
2023/06/28 00:49:21;;;;;;;1.63;1.23;;;;;;;;;;8342351;28;20291;-61
2023/06/28 00:53:21;;;;;;;2.40;1.40;;;;;;;;;;8338883;28;20275;-61
2023/06/28 00:57:22;;;;;;;5.53;1.40;;;;;;;;;;8349726;28;20584;-60
2023/06/28 01:01:23;;;;;;;3.13;1.23;;;;;;;;;;8343509;28;20748;-61
2023/06/28 01:05:23;;;;;;;5.45;1.55;;;;;;;;;;8340707;28;20028;-60
2023/06/28 01:09:24;;;;;;;2.38;1.23;;;;;;;;;;8335928;28;20541;-61
2023/06/28 01:13:25;;;;;;;3.28;1.40;;;;;;;;;;8328298;28;20078;-61
2023/06/28 01:17:25;;;;;;;6.53;1.40;;;;;;;;;;8345175;28;20033;-61
2023/06/28 01:21:28;;;;;;;3.63;1.30;;;;;;;;;;8348291;28;20278;-61
2023/06/28 01:25:28;;;;;;;3.78;1.50;;;;;;;;;;8338520;28;20043;-61
2023/06/28 01:29:29;;;;;;;3.27;1.43;;;;;;;;;;8335535;28;20036;-61
2023/06/28 01:33:29;;;;;;;4.15;1.50;;;;;;;;;;8342623;28;20033;-61
2023/06/28 01:37:29;;;;;;;2.57;1.40;;;;;;;;;;8344859;28;20033;-61
2023/06/28 01:41:29;;;;;;;3.83;1.33;;;;;;;;;;8336580;28;20025;-61
2023/06/28 01:45:30;;;;;;;3.67;1.63;;;;;;;;;;8339527;28;20044;-61
2023/06/28 01:49:30;;;;;;;3.80;1.40;;;;;;;;;;8338548;28;20117;-60
2023/06/28 01:53:30;;;;;;;4.88;1.67;;;;;;;;;;8341222;28;20354;-61
2023/06/28 01:57:31;;;;;;;2.70;1.33;;;;;;;;;;8334870;28;20570;-60
2023/06/28 02:01:31;;;;;;;4.40;1.60;;;;;;;;;;8337746;28;20036;-61
2023/06/28 02:05:31;;;;;;;2.72;1.50;;;;;;;;;;8338669;28;20093;-60
2023/06/28 02:09:32;;;;;;;2.58;1.55;;;;;;;;;;8338894;28;20025;-60
2023/06/28 02:13:32;;;;;;;5.23;1.77;;;;;;;;;;8338469;28;20020;-60
2023/06/28 02:17:32;;;;;;;4.22;1.50;;;;;;;;;;8335581;28;20795;-60
2023/06/28 02:21:32;;;;;;;5.33;1.60;;;;;;;;;;8338300;28;20036;-60
2023/06/28 02:25:32;;;;;;;3.65;1.60;;;;;;;;;;8336595;28;20032;-60
2023/06/28 02:29:32;;;;;;;7.78;1.90;;;;;;;;;;8338124;28;20185;-60
2023/06/28 02:33:33;;;;;;;5.03;1.80;;;;;;;;;;8340257;28;20033;-59
2023/06/28 02:37:33;;;;;;;3.30;1.60;;;;;;;;;;8334961;28;20032;-60
2023/06/28 02:41:33;;;;;;;4.82;1.67;;;;;;;;;;8345886;28;20037;-59
2023/06/28 02:45:33;;;;;;;5.07;1.75;;;;;;;;;;8346327;28;20037;-60
2023/06/28 02:49:34;;;;;;;4.43;1.55;;;;;;;;;;8342017;28;20037;-61
2023/06/28 02:53:34;;;;;;;3.90;1.60;;;;;;;;;;8342544;28;20016;-60
2023/06/28 02:57:34;;;;;;;7.75;1.77;;;;;;;;;;8344008;28;20371;-61
2023/06/28 03:01:34;;;;;;;3.53;1.70;;;;;;;;;;8342623;28;20143;-61
2023/06/28 03:05:35;;;;;;;7.03;1.70;;;;;;;;;;8346376;28;20397;-60
2023/06/28 03:09:35;;;;;;;4.40;1.58;;;;;;;;;;8339912;28;20115;-60
2023/06/28 03:13:36;;;;;;;3.40;1.52;;;;;;;;;;8345953;28;20092;-61
2023/06/28 03:17:36;;;;;;;4.10;1.50;;;;;;;;;;8342039;28;20110;-61
2023/06/28 03:21:38;;;;;;;2.85;1.40;;;;;;;;;;8347785;28;20344;-60
2023/06/28 03:25:38;;;;;;;3.58;1.40;;;;;;;;;;8344061;28;20144;-60
2023/06/28 03:29:38;;;;;;;3.10;1.70;;;;;;;;;;8340125;28;20032;-61
2023/06/28 03:33:38;;;;;;;3.80;1.58;;;;;;;;;;8350169;28;20122;-60
2023/06/28 03:37:39;;;;;;;3.57;1.40;;;;;;;;;;8338174;28;20028;-60
2023/06/28 03:41:39;;;;;;;3.43;1.50;;;;;;;;;;8339521;28;20743;-60
2023/06/28 03:45:39;;;;;;;6.60;1.48;;;;;;;;;;8347397;28;20789;-60
2023/06/28 03:49:40;;;;;;;5.07;1.70;;;;;;;;;;8349944;28;20079;-60
2023/06/28 03:53:40;;;;;;;9.07;1.60;;;;;;;;;;8339045;28;20109;-60
2023/06/28 03:57:41;;;;;;;4.50;1.50;;;;;;;;;;8343174;28;20501;-61
2023/06/28 04:01:41;;;;;;;2.60;1.33;;;;;;;;;;8346539;28;20132;-60
2023/06/28 04:05:42;;;;;;;4.50;1.50;;;;;;;;;;8337812;28;20028;-60
2023/06/28 04:09:43;;;;;;;6.53;1.40;;;;;;;;;;8339939;28;20025;-60
2023/06/28 04:13:43;;;;;;;2.88;1.38;;;;;;;;;;8337720;28;20057;-60
2023/06/28 04:17:43;;;;;;;2.72;1.27;;;;;;;;;;8335676;28;20157;-61
2023/06/28 04:21:43;;;;;;;2.53;1.40;;;;;;;;;;8336696;28;20029;-60
2023/06/28 04:25:44;;;;;;;3.83;1.40;;;;;;;;;;8341107;28;20095;-60
2023/06/28 04:29:44;;;;;;;2.42;1.40;;;;;;;;;;8336791;28;20479;-60
2023/06/28 04:33:46;;;;;;;2.35;1.10;;;;;;;;;;8345491;28;20031;-60
2023/06/28 04:37:48;;;;;;;2.33;1.20;;;;;;;;;;8336780;28;20115;-61
2023/06/28 04:41:48;;;;;;;1.40;1.30;;;;;;;;;;8337266;28;20741;-60
2023/06/28 04:45:48;;;;;;;7.85;1.55;;;;;;;;;;8297927;28;1127809;-60
2023/06/28 04:49:49;;;;;;;3.97;1.65;;;;;;;;;;8337770;28;20066;-61
2023/06/28 04:53:49;;;;;;;5.30;1.65;;;;;;;;;;8347789;28;20036;-61
2023/06/28 04:57:50;;;;;;;4.97;1.40;;;;;;;;;;8338047;28;20024;-62
2023/06/28 05:01:50;;;;;;;3.25;1.65;;;;;;;;;;8336377;28;20676;-61
2023/06/28 05:05:50;;;;;;;3.95;1.50;;;;;;;;;;8336181;28;20025;-61
2023/06/28 05:09:51;;;;;;;6.50;1.80;;;;;;;;;;8327955;28;20031;-61
2023/06/28 05:13:51;;;;;;;3.08;1.45;;;;;;;;;;8343048;28;20055;-61
2023/06/28 05:17:51;;;;;;;2.85;1.40;;;;;;;;;;8337128;28;20044;-61
2023/06/28 05:21:51;;;;;;;2.70;1.40;;;;;;;;;;8336740;28;20028;-61
2023/06/28 05:25:52;;;;;;;4.23;1.53;;;;;;;;;;8334198;28;20074;-61
2023/06/28 05:29:52;;;;;;;1.87;1.30;;;;;;;;;;8341435;28;20035;-61
2023/06/28 05:33:52;;;;;;;3.50;1.33;;;;;;;;;;8344513;28;20040;-61
2023/06/28 05:37:52;;;;;;;5.07;1.63;;;;;;;;;;8337465;28;20021;-61
2023/06/28 05:41:52;;;;;;;4.13;1.30;;;;;;;;;;8339895;28;20075;-61
2023/06/28 05:45:54;;;;;;;4.40;1.40;;;;;;;;;;8337984;28;20028;-61
2023/06/28 05:49:54;;;;;;;1.77;1.08;;;;;;;;;;8338287;28;20353;-61
2023/06/28 05:53:55;;;;;;;3.40;1.60;;;;;;;;;;8337724;28;20025;-61
2023/06/28 05:57:55;;;;;;;3.42;1.25;;;;;;;;;;8334053;28;20028;-62
2023/06/28 06:01:55;;;;;;;5.00;1.60;;;;;;;;;;8334841;28;20155;-61
2023/06/28 06:05:56;;;;;;;2.80;1.50;;;;;;;;;;8335726;28;20028;-61
2023/06/28 06:09:56;;;;;;;3.40;1.50;;;;;;;;;;8341333;28;20051;-61
2023/06/28 06:13:57;;;;;;;6.03;1.60;;;;;;;;;;8337128;28;20023;-61
2023/06/28 06:17:57;;;;;;;3.42;1.50;;;;;;;;;;8342416;28;20622;-61
2023/06/28 06:21:57;;;;;;;4.85;1.40;;;;;;;;;;8336949;28;20486;-61
2023/06/28 06:25:57;;;;;;;3.88;1.70;;;;;;;;;;8343850;28;20110;-61
2023/06/28 06:29:57;;;;;;;5.18;1.60;;;;;;;;;;8335113;28;20404;-61
2023/06/28 06:34:01;;;;;;;7.63;1.50;;;;;;;;;;8336031;28;20045;-61
2023/06/28 06:38:01;;;;;;;2.70;1.70;;;;;;;;;;8335207;28;20884;-61
2023/06/28 06:42:01;;;;;;;3.60;1.67;;;;;;;;;;8336131;28;20028;-61
2023/06/28 06:46:01;;;;;;;2.78;1.27;;;;;;;;;;8333823;28;20526;-61
2023/06/28 06:50:01;;;;;;;3.90;1.60;;;;;;;;;;8339620;28;20028;-61
2023/06/28 06:54:02;;;;;;;2.38;1.50;;;;;;;;;;8334406;28;20377;-61
2023/06/28 06:58:02;;;;;;;3.85;1.80;;;;;;;;;;8334627;28;20057;-61
2023/06/28 07:02:03;;;;;;;2.72;1.60;;;;;;;;;;8335484;28;20040;-61
2023/06/28 07:06:03;;;;;;;3.67;1.45;;;;;;;;;;8339869;28;20036;-61
2023/06/28 07:10:03;;;;;;;4.90;1.70;;;;;;;;;;8332744;28;20082;-61
2023/06/28 07:14:03;;;;;;;4.20;1.60;;;;;;;;;;8337283;28;20554;-61
2023/06/28 07:18:04;;;;;;;3.30;2.05;;;;;;;;;;8334963;28;20035;-61
2023/06/28 07:22:04;;;;;;;3.13;1.60;;;;;;;;;;8344352;28;20374;-61
2023/06/28 07:26:05;;;;;;;3.38;1.73;;;;;;;;;;8342733;28;20029;-61
2023/06/28 07:30:06;;;;;;;5.17;1.90;;;;;;;;;;8337841;28;20047;-61
2023/06/28 07:34:08;;;;;;;3.88;1.67;;;;;;;;;;8333187;28;20276;-61
2023/06/28 07:38:09;;;;;;;4.93;1.80;;;;;;;;;;8325738;28;20021;-61
2023/06/28 07:42:09;;;;;;;3.75;1.27;;;;;;;;;;8343034;28;20035;-61
2023/06/28 07:46:09;;;;;;;3.90;1.70;;;;;;;;;;8338348;28;20083;-61
2023/06/28 07:50:09;;;;;;;3.33;1.70;;;;;;;;;;8342112;28;20453;-61
2023/06/28 07:54:10;;;;;;;4.35;1.60;;;;;;;;;;8335413;28;20109;-61
2023/06/28 07:58:10;;;;;;;3.10;1.50;;;;;;;;;;8340440;28;20465;-61
2023/06/28 08:02:10;;;;;;;6.13;1.47;;;;;;;;;;8342509;28;20071;-61
2023/06/28 08:06:11;;;;;;;5.40;1.57;;;;;;;;;;8344868;28;20162;-61
2023/06/28 08:10:11;;;;;;;4.73;1.50;;;;;;;;;;8340624;28;20740;-61
2023/06/28 08:14:11;;;;;;;3.90;1.93;;;;;;;;;;8338729;28;20774;-61
2023/06/28 08:18:12;;;;;;;7.15;1.73;;;;;;;;;;8339021;28;20040;-61
2023/06/28 08:22:12;;;;;;;8.68;1.70;;;;;;;;;;8338944;28;20531;-61
2023/06/28 08:26:13;;;;;;;2.87;1.60;;;;;;;;;;8339672;28;20025;-61
2023/06/28 08:30:13;;;;;;;3.40;1.57;;;;;;;;;;8337163;28;20032;-61
2023/06/28 08:34:13;;;;;;;4.67;1.70;;;;;;;;;;8336289;28;20074;-61
2023/06/28 08:38:13;;;;;;;4.38;1.70;;;;;;;;;;8337080;28;20887;-61
2023/06/28 08:42:15;;;;;;;5.65;2.13;;;;;;;;;;8334710;28;20031;-61
2023/06/28 08:46:16;;;;;;;8.47;1.90;;;;;;;;;;8341142;28;20504;-61
2023/06/28 08:50:17;;;;;;;5.45;1.83;;;;;;;;;;8339537;28;20060;-62
2023/06/28 08:54:19;;;;;;;3.58;1.50;;;;;;;;;;8339412;28;20033;-61
2023/06/28 08:58:20;;;;;;;5.82;1.60;;;;;;;;;;8337301;28;20028;-61
2023/06/28 09:02:21;;;;;;;3.92;1.67;;;;;;;;;;8344687;28;20036;-61
2023/06/28 09:06:21;;;;;;;3.53;1.48;;;;;;;;;;8338053;28;20118;-61
2023/06/28 09:10:22;;;;;;;4.40;1.60;;;;;;;;;;8342744;28;20746;-61
2023/06/28 09:14:22;;;;;;;4.63;1.60;;;;;;;;;;8337919;28;20055;-61
2023/06/28 09:18:22;;;;;;;5.57;2.00;;;;;;;;;;8331522;28;20041;-61
2023/06/28 09:22:22;;;;;;;4.47;1.80;;;;;;;;;;8337532;28;20059;-61
2023/06/28 09:26:29;;;;;;;4.00;1.70;;;;;;;;;;8333326;28;20309;-61
2023/06/28 09:30:29;;;;;;;5.68;1.77;;;;;;;;;;8334565;28;20045;-61
2023/06/28 09:34:30;;;;;;;6.63;1.88;;;;;;;;;;8335666;28;20016;-61
2023/06/28 09:38:30;;;;;;;3.38;1.60;;;;;;;;;;8333411;28;20113;-61
2023/06/28 09:42:30;;;;;;;6.43;1.73;;;;;;;;;;8335097;28;20021;-61
2023/06/28 09:46:31;;;;;;;4.18;1.98;;;;;;;;;;8331434;28;20284;-61
2023/06/28 09:50:36;;;;;;;4.13;1.52;;;;;;;;;;8337092;28;20033;-61
2023/06/28 09:54:45;;;;;;;5.82;1.77;;;;;;;;;;8334338;28;20055;-61
2023/06/28 09:58:47;;;;;;;3.15;1.50;;;;;;;;;;8334513;28;20074;-61
2023/06/28 10:02:48;;;;;;;3.33;1.48;;;;;;;;;;8331966;28;20141;-61
2023/06/28 10:06:48;;;;;;;2.95;1.50;;;;;;;;;;8332010;28;20442;-61
2023/06/28 10:10:53;;;;;;;3.33;1.60;;;;;;;;;;8334923;28;20132;-61
2023/06/28 10:14:54;;;;;;;4.18;1.90;;;;;;;;;;8333807;28;20025;-61
2023/06/28 10:18:54;;;;;;;4.78;1.67;;;;;;;;;;8337943;28;20626;-61
2023/06/28 10:22:54;;;;;;;3.60;1.52;;;;;;;;;;8345126;28;20527;-61
2023/06/28 10:26:55;;;;;;;2.73;1.50;;;;;;;;;;8346913;28;20028;-61
2023/06/28 10:30:56;;;;;;;4.22;1.67;;;;;;;;;;8338071;28;20029;-61
2023/06/28 10:34:57;;;;;;;5.95;1.98;;;;;;;;;;8332621;28;20075;-61
2023/06/28 10:38:57;;;;;;;3.17;1.60;;;;;;;;;;8329954;28;20024;-61
2023/06/28 10:42:58;;;;;;;4.72;1.70;;;;;;;;;;8334277;28;20100;-62
2023/06/28 10:47:11;;;;;;;4.73;1.70;;;;;;;;;;8333135;28;20095;-61
2023/06/28 10:51:13;;;;;;;4.05;1.90;;;;;;;;;;8334956;28;20020;-61
2023/06/28 10:55:17;;;;;;;3.97;1.70;;;;;;;;;;8331776;28;20468;-61
2023/06/28 10:59:18;;;;;;;5.60;1.73;;;;;;;;;;8333488;28;20017;-61
2023/06/28 11:03:19;;;;;;;3.88;1.48;;;;;;;;;;8333461;28;20044;-61
2023/06/28 11:07:27;;;;;;;4.63;1.50;;;;;;;;;;8340152;28;20024;-61
2023/06/28 11:11:27;;;;;;;5.57;1.60;;;;;;;;;;8340379;28;20024;-61
2023/06/28 11:15:28;;;;;;;5.07;1.67;;;;;;;;;;8330426;28;20056;-61
2023/06/28 11:19:28;;;;;;;4.65;1.67;;;;;;;;;;8339713;28;20128;-61
2023/06/28 11:23:28;;;;;;;3.47;1.67;;;;;;;;;;8334396;28;20056;-61
2023/06/28 11:27:38;;;;;;;4.60;1.80;;;;;;;;;;8341706;28;20040;-61
2023/06/28 11:31:40;;;;;;;8.35;2.17;;;;;;;;;;8345612;28;20124;-61
2023/06/28 11:35:40;;;;;;;28.88;4.45;;;;;;;;;;8328439;28;20029;-61
2023/06/28 11:39:41;;;;;;;4.97;2.00;;;;;;;;;;8340806;28;20034;-61
2023/06/28 11:43:45;;;;;;;4.45;1.80;;;;;;;;;;8332349;28;20079;-62
2023/06/28 11:47:46;;;;;;;3.65;1.90;;;;;;;;;;8340390;28;20955;-61
2023/06/28 11:51:51;;;;;;;5.93;1.70;;;;;;;;;;8340112;28;20020;-56
2023/06/28 11:55:54;;;;;;;7.43;1.75;;;;;;;;;;8343720;28;20028;-61
2023/06/28 11:59:54;;;;;;;3.63;1.60;;;;;;;;;;8344995;28;20066;-60
2023/06/28 12:03:54;;;;;;;8.15;2.42;;;;;;;;;;8342169;28;20123;-60
2023/06/28 12:07:58;;;;;;;17.65;2.55;;;;;;;;;;8343228;28;20058;-60
2023/06/28 12:11:59;;;;;;;6.60;2.13;;;;;;;;;;8336466;28;20039;-60
2023/06/28 12:16:21;;;;;;;8.77;1.52;;;;;;;;;;8343942;28;20037;-60
2023/06/28 12:20:21;;;;;;;7.30;2.20;;;;;;;;;;8321081;28;20834;-60
2023/06/28 12:24:24;;;;;;;3.17;1.63;;;;;;;;;;8334177;28;20831;-62
2023/06/28 12:28:24;;;;;;;13.98;2.15;;;;;;;;;;8338771;28;20363;-62
2023/06/28 12:32:25;;;;;;;49.20;3.38;;;;;;;;;;8337487;28;20037;-56
2023/06/28 12:36:25;;;;;;;5.15;1.50;;;;;;;;;;8339115;28;20029;-58
2023/06/28 12:40:29;;;;;;;3.85;1.73;;;;;;;;;;8335505;28;20024;-61
2023/06/28 12:44:30;;;;;;;4.45;1.50;;;;;;;;;;8337616;28;20115;-61
2023/06/28 12:48:30;;;;;;;4.20;1.60;;;;;;;;;;8336296;28;20056;-62
2023/06/28 12:52:30;;;;;;;2.30;1.25;;;;;;;;;;8333097;28;20056;-61
2023/06/28 12:56:31;;;;;;;1.80;1.20;;;;;;;;;;8335538;28;20682;-61
2023/06/28 13:00:31;;;;;;;3.80;1.40;;;;;;;;;;8339126;28;20091;-61
2023/06/28 13:04:33;;;;;;;4.30;1.20;;;;;;;;;;8336641;28;20282;-62
2023/06/28 13:08:34;;;;;;;4.15;1.30;;;;;;;;;;8337169;28;20107;-61
2023/06/28 13:12:34;;;;;;;5.22;1.23;;;;;;;;;;8336438;28;21679;-61
2023/06/28 13:16:35;;;;;;;2.65;1.45;;;;;;;;;;8338812;28;20032;-61
2023/06/28 13:20:35;;;;;;;3.47;1.20;;;;;;;;;;8328526;28;20485;-62
2023/06/28 13:24:35;;;;;;;4.97;1.40;;;;;;;;;;8329279;28;20024;-62
2023/06/28 13:28:35;;;;;;;2.33;1.40;;;;;;;;;;8327277;28;20565;-62
2023/06/28 13:32:35;;;;;;;4.85;1.17;;;;;;;;;;8328669;28;20067;-62
2023/06/28 13:36:35;;;;;;;1.55;1.10;;;;;;;;;;8311975;28;20028;-62
2023/06/28 13:40:37;;;;;;;3.15;1.42;;;;;;;;;;8309310;28;20449;-61
2023/06/28 13:44:37;;;;;;;1.73;1.15;;;;;;;;;;8334216;28;20031;-62
2023/06/28 13:48:37;;;;;;;1.20;1.10;;;;;;;;;;8327932;28;20718;-62
2023/06/28 13:52:37;;;;;;;2.55;1.30;;;;;;;;;;8339178;28;20127;-62
2023/06/28 13:56:38;;;;;;;1.87;1.33;;;;;;;;;;8334599;28;20385;-62
2023/06/28 14:00:38;;;;;;;1.98;1.30;;;;;;;;;;8336530;28;20935;-62
2023/06/28 14:04:38;;;;;;;1.97;1.20;;;;;;;;;;8336940;28;20043;-62
2023/06/28 14:08:38;;;;;;;3.73;1.50;;;;;;;;;;8334513;28;20040;-62
2023/06/28 14:12:39;;;;;;;2.58;1.40;;;;;;;;;;8335710;28;20017;-62
2023/06/28 14:16:39;;;;;;;4.57;1.60;;;;;;;;;;8332314;28;20041;-62
2023/06/28 14:20:39;;;;;;;3.58;1.88;;;;;;;;;;8339095;28;20714;-62
2023/06/28 14:24:40;;;;;;;3.53;1.90;;;;;;;;;;8334962;28;20016;-62
2023/06/28 14:28:40;;;;;;;4.32;1.52;;;;;;;;;;8339705;28;20051;-62
2023/06/28 14:32:40;;;;;;;3.33;1.97;;;;;;;;;;8335129;28;20066;-62
2023/06/28 14:36:41;;;;;;;3.38;1.83;;;;;;;;;;8334364;28;20028;-62
2023/06/28 14:40:41;;;;;;;3.00;1.77;;;;;;;;;;8342291;28;20053;-62
2023/06/28 14:44:41;;;;;;;4.28;1.80;;;;;;;;;;8354555;28;20050;-61
2023/06/28 14:48:41;;;;;;;2.00;1.80;;;;;;;;;;8341627;28;21183;-62
2023/06/28 14:52:42;;;;;;;3.05;2.03;;;;;;;;;;8343861;28;20096;-62
2023/06/28 14:56:42;;;;;;;3.27;2.20;;;;;;;;;;8327516;28;20510;-61
2023/06/28 15:00:42;;;;;;;4.17;2.30;;;;;;;;;;8337084;28;20040;-62
2023/06/28 15:04:42;;;;;;;5.25;1.90;;;;;;;;;;8343357;28;20029;-61
2023/06/28 15:08:42;;;;;;;2.83;2.03;;;;;;;;;;8342061;28;20461;-62
2023/06/28 15:12:43;;;;;;;3.97;1.92;;;;;;;;;;8341070;28;20040;-61
2023/06/28 15:16:43;;;;;;;3.17;1.98;;;;;;;;;;8338393;28;20041;-61
2023/06/28 15:20:43;;;;;;;2.07;1.80;;;;;;;;;;8322482;28;20039;-62
2023/06/28 15:24:43;;;;;;;3.60;2.10;;;;;;;;;;8339927;28;20025;-62
2023/06/28 15:28:44;;;;;;;4.80;1.87;;;;;;;;;;8341264;28;20067;-62
2023/06/28 15:32:44;;;;;;;3.27;2.00;;;;;;;;;;8340853;28;20426;-62
2023/06/28 15:36:44;;;;;;;3.47;1.77;;;;;;;;;;8342082;28;20582;-61
2023/06/28 15:40:44;;;;;;;1.50;1.40;;;;;;;;;;8338947;28;20116;-62
2023/06/28 15:44:45;;;;;;;4.28;1.77;;;;;;;;;;8340317;28;20032;-62
2023/06/28 15:48:45;;;;;;;1.92;1.70;;;;;;;;;;8337364;28;20743;-61
2023/06/28 15:52:45;;;;;;;4.43;1.60;;;;;;;;;;8339997;28;20021;-62
2023/06/28 15:56:46;;;;;;;3.15;1.20;;;;;;;;;;8345009;28;20017;-62
2023/06/28 16:00:48;;;;;;;1.60;1.30;;;;;;;;;;8342007;28;20156;-61
2023/06/28 16:04:49;;;;;;;1.42;1.30;;;;;;;;;;8340269;28;20021;-61
2023/06/28 16:08:49;;;;;;;3.72;1.30;;;;;;;;;;8339861;28;20719;-62
2023/06/28 16:12:50;;;;;;;4.53;1.40;;;;;;;;;;8337436;28;20117;-61
2023/06/28 16:16:50;;;;;;;1.52;1.40;;;;;;;;;;8336058;28;20071;-61
2023/06/28 16:20:50;;;;;;;2.00;1.08;;;;;;;;;;8339020;28;20508;-61
2023/06/28 16:24:50;;;;;;;2.97;1.50;;;;;;;;;;8342555;28;20093;-62
2023/06/28 16:28:51;;;;;;;2.05;1.17;;;;;;;;;;8335445;28;20060;-61
2023/06/28 16:32:53;;;;;;;1.83;1.10;;;;;;;;;;8336727;28;20032;-62
2023/06/28 16:36:54;;;;;;;1.67;1.33;;;;;;;;;;8334665;28;20673;-62
2023/06/28 16:40:54;;;;;;;1.65;1.30;;;;;;;;;;8341699;28;20029;-61
2023/06/28 16:44:55;;;;;;;2.95;1.25;;;;;;;;;;8333662;28;20119;-62
2023/06/28 16:48:55;;;;;;;1.67;1.25;;;;;;;;;;8341170;28;20089;-62
2023/06/28 16:52:55;;;;;;;1.27;1.10;;;;;;;;;;8333934;28;20381;-61
2023/06/28 16:56:56;;;;;;;1.20;1.10;;;;;;;;;;8335874;28;20021;-62
2023/06/28 17:00:56;;;;;;;1.42;1.10;;;;;;;;;;8333451;28;20036;-62
2023/06/28 17:04:56;;;;;;;2.38;1.35;;;;;;;;;;8334456;28;20127;-62
2023/06/28 17:08:56;;;;;;;1.88;1.17;;;;;;;;;;8335018;28;20024;-62
2023/06/28 17:12:56;;;;;;;2.28;1.10;;;;;;;;;;8342372;28;20021;-62
2023/06/28 17:16:57;;;;;;;1.20;1.02;;;;;;;;;;8335813;28;20040;-61
2023/06/28 17:20:57;;;;;;;1.50;1.27;;;;;;;;;;8338768;28;20731;-61
2023/06/28 17:24:58;;;;;;;2.67;1.10;;;;;;;;;;8332395;28;20027;-61
2023/06/28 17:28:59;;;;;;;2.17;0.98;;;;;;;;;;8333785;28;20081;-61
2023/06/28 17:32:59;;;;;;;2.15;0.98;;;;;;;;;;8338061;28;20032;-61
2023/06/28 17:36:59;;;;;;;0.98;0.90;;;;;;;;;;8317226;28;20440;-61
2023/06/28 17:41:05;;;;;;;1.03;0.93;;;;;;;;;;8332167;28;20469;-61
2023/06/28 17:45:05;;;;;;;1.50;1.10;;;;;;;;;;8323442;28;20774;-62
2023/06/28 17:49:06;;;;;;;1.00;1.00;;;;;;;;;;8328313;28;20100;-61
2023/06/28 17:53:06;;;;;;;1.88;1.10;;;;;;;;;;8333321;28;20131;-62
2023/06/28 17:57:06;;;;;;;0.98;0.90;;;;;;;;;;8335768;28;20871;-61
2023/06/28 18:01:07;;;;;;;1.20;1.07;;;;;;;;;;8319357;28;20068;-61
2023/06/28 18:05:08;;;;;;;2.13;1.10;;;;;;;;;;8330749;28;20047;-61
2023/06/28 18:09:09;;;;;;;2.50;1.10;;;;;;;;;;8324110;28;20061;-61
2023/06/28 18:13:09;;;;;;;2.00;1.00;;;;;;;;;;8326176;28;20021;-60
2023/06/28 18:17:09;;;;;;;2.85;1.00;;;;;;;;;;8326890;28;20853;-61
2023/06/28 18:21:10;;;;;;;1.00;0.90;;;;;;;;;;8325104;28;20097;-60
2023/06/28 18:25:10;;;;;;;1.98;0.90;;;;;;;;;;8330592;28;20113;-60
2023/06/28 18:29:10;;;;;;;2.13;1.00;;;;;;;;;;8324800;28;20040;-61
2023/06/28 18:33:10;;;;;;;2.47;0.90;;;;;;;;;;8332676;28;20025;-60
2023/06/28 18:37:11;;;;;;;0.87;0.80;;;;;;;;;;8327994;28;20033;-60
2023/06/28 18:41:11;;;;;;;1.87;0.93;;;;;;;;;;8324122;28;20082;-60
2023/06/28 18:45:12;;;;;;;2.45;1.00;;;;;;;;;;8323870;28;20025;-61
2023/06/28 18:49:12;;;;;;;1.30;1.00;;;;;;;;;;8327130;28;20506;-60
2023/06/28 18:53:13;;;;;;;1.83;1.10;;;;;;;;;;8322428;28;20067;-60
2023/06/28 18:57:13;;;;;;;1.45;0.95;;;;;;;;;;8323707;28;20504;-60
2023/06/28 19:01:13;;;;;;;3.05;1.05;;;;;;;;;;8321856;28;20629;-60
2023/06/28 19:05:13;;;;;;;1.20;0.90;;;;;;;;;;8329731;28;20043;-60
2023/06/28 19:09:14;;;;;;;2.13;1.00;;;;;;;;;;8331026;28;20029;-60
2023/06/28 19:13:14;;;;;;;0.77;0.77;;;;;;;;;;8336763;28;20130;-60
2023/06/28 19:17:14;;;;;;;2.70;1.02;;;;;;;;;;8336062;28;20032;-60
2023/06/28 19:21:14;;;;;;;1.77;1.08;;;;;;;;;;8327490;28;20123;-60
2023/06/28 19:25:15;;;;;;;1.17;1.05;;;;;;;;;;8326125;28;20108;-60
2023/06/28 19:29:15;;;;;;;2.13;1.00;;;;;;;;;;8311657;28;20434;-60
2023/06/28 19:33:15;;;;;;;2.78;1.00;;;;;;;;;;8329022;28;20029;-60
2023/06/28 19:37:15;;;;;;;2.40;0.90;;;;;;;;;;8328075;28;20067;-60
2023/06/28 19:41:16;;;;;;;0.90;0.90;;;;;;;;;;8331012;28;20075;-60
2023/06/28 19:45:17;;;;;;;6.05;1.10;;;;;;;;;;8327123;28;20241;-60
2023/06/28 19:49:17;;;;;;;0.93;0.80;;;;;;;;;;8331241;28;20067;-60
2023/06/28 19:53:17;;;;;;;2.58;1.00;;;;;;;;;;8339269;28;20036;-61
2023/06/28 19:57:18;;;;;;;1.23;1.13;;;;;;;;;;8338197;28;20036;-60
2023/06/28 20:01:18;;;;;;;1.73;1.13;;;;;;;;;;8343899;28;20409;-61
2023/06/28 20:05:19;;;;;;;1.02;0.93;;;;;;;;;;8334114;28;20340;-60
2023/06/28 20:09:19;;;;;;;2.28;1.15;;;;;;;;;;8337892;28;22356;-60
2023/06/28 20:13:19;;;;;;;2.03;1.02;;;;;;;;;;8342613;28;20024;-60
2023/06/28 20:17:20;;;;;;;2.13;1.03;;;;;;;;;;8336425;28;20040;-60
2023/06/28 20:21:20;;;;;;;1.67;1.10;;;;;;;;;;8330832;28;20086;-60
2023/06/28 20:25:20;;;;;;;1.20;1.10;;;;;;;;;;8330734;28;20090;-61
2023/06/28 20:29:20;;;;;;;1.30;0.98;;;;;;;;;;8331342;28;22050;-61
2023/06/28 20:33:21;;;;;;;2.22;1.00;;;;;;;;;;8331283;28;20063;-60
2023/06/28 20:37:22;;;;;;;1.77;1.08;;;;;;;;;;8339144;28;20017;-60
2023/06/28 20:41:24;;;;;;;1.83;1.20;;;;;;;;;;8337066;28;20043;-60
2023/06/28 20:45:24;;;;;;;5.20;1.05;;;;;;;;;;8333376;28;20056;-61
2023/06/28 20:49:25;;;;;;;2.83;1.53;;;;;;;;;;8338133;28;20758;-60
2023/06/28 20:53:25;;;;;;;3.10;1.30;;;;;;;;;;8335919;28;20821;-61
2023/06/28 20:57:25;;;;;;;3.70;1.20;;;;;;;;;;8331177;28;20051;-60
2023/06/28 21:01:26;;;;;;;1.27;1.00;;;;;;;;;;8334822;28;20071;-60
2023/06/28 21:05:26;;;;;;;1.92;1.08;;;;;;;;;;8337668;28;20036;-60
2023/06/28 21:09:27;;;;;;;2.80;1.20;;;;;;;;;;8333143;28;20488;-61
2023/06/28 21:13:28;;;;;;;2.25;0.95;;;;;;;;;;8336310;28;20114;-60
2023/06/28 21:17:28;;;;;;;2.22;1.13;;;;;;;;;;8334602;28;20140;-60
2023/06/28 21:21:28;;;;;;;1.63;1.20;;;;;;;;;;8342277;28;20197;-60
2023/06/28 21:25:28;;;;;;;2.05;1.00;;;;;;;;;;8334392;28;20505;-60
2023/06/28 21:29:28;;;;;;;3.92;1.88;;;;;;;;;;8342305;28;20113;-60
2023/06/28 21:33:29;;;;;;;2.35;1.10;;;;;;;;;;8344629;28;20040;-60
2023/06/28 21:37:29;;;;;;;1.67;1.10;;;;;;;;;;8332465;28;20025;-60
2023/06/28 21:41:29;;;;;;;3.07;1.20;;;;;;;;;;8332439;28;20021;-61
2023/06/28 21:45:30;;;;;;;3.17;1.20;;;;;;;;;;8338539;28;21181;-61
2023/06/28 21:49:30;;;;;;;1.83;1.17;;;;;;;;;;8343397;28;20427;-60
2023/06/28 21:53:30;;;;;;;2.60;1.13;;;;;;;;;;8345370;28;20055;-60
2023/06/28 21:57:30;;;;;;;3.60;1.20;;;;;;;;;;8314016;28;20059;-60
2023/06/28 22:01:31;;;;;;;2.63;1.00;;;;;;;;;;8333763;28;20033;-60
2023/06/28 22:05:31;;;;;;;1.27;1.03;;;;;;;;;;8338641;28;20091;-60
2023/06/28 22:09:31;;;;;;;2.63;1.15;;;;;;;;;;8338637;28;20028;-60
2023/06/28 22:13:34;;;;;;;2.15;1.13;;;;;;;;;;8333374;28;20025;-60
2023/06/28 22:17:36;;;;;;;1.10;1.00;;;;;;;;;;8339767;28;20045;-61
2023/06/28 22:21:38;;;;;;;3.23;1.20;;;;;;;;;;8336527;28;20027;-61
2023/06/28 22:25:39;;;;;;;1.33;1.10;;;;;;;;;;8337775;28;20029;-61
2023/06/28 22:29:39;;;;;;;1.48;1.23;;;;;;;;;;8347609;28;20089;-60
2023/06/28 22:33:39;;;;;;;1.60;0.95;;;;;;;;;;8334767;28;20037;-60
2023/06/28 22:37:40;;;;;;;1.45;1.10;;;;;;;;;;8333107;28;20056;-60
2023/06/28 22:41:40;;;;;;;1.20;1.10;;;;;;;;;;8344777;28;20706;-61
2023/06/28 22:45:40;;;;;;;1.20;1.10;;;;;;;;;;8339536;28;20048;-61
2023/06/28 22:49:41;;;;;;;7.30;1.60;;;;;;;;;;8332500;28;20025;-61
2023/06/28 22:53:44;;;;;;;7.20;1.17;;;;;;;;;;8343026;28;20370;-61
2023/06/28 22:57:45;;;;;;;3.65;1.10;;;;;;;;;;8341247;28;20092;-61
2023/06/28 23:01:46;;;;;;;3.63;1.17;;;;;;;;;;8336453;28;20762;-61
2023/06/28 23:05:46;;;;;;;5.18;1.30;;;;;;;;;;8337963;28;20305;-61
2023/06/28 23:09:47;;;;;;;2.28;1.35;;;;;;;;;;8338131;28;20610;-60
2023/06/28 23:13:47;;;;;;;1.63;1.10;;;;;;;;;;8341288;28;20103;-60
2023/06/28 23:17:47;;;;;;;1.75;1.13;;;;;;;;;;8348486;28;20151;-60
2023/06/28 23:21:47;;;;;;;2.00;1.27;;;;;;;;;;8322224;28;20029;-60
2023/06/28 23:25:50;;;;;;;2.40;1.10;;;;;;;;;;8342967;28;20306;-60
2023/06/28 23:29:51;;;;;;;1.83;1.37;;;;;;;;;;8345999;28;20763;-60
2023/06/28 23:33:51;;;;;;;2.75;1.20;;;;;;;;;;8341656;28;20346;-60
2023/06/28 23:37:52;;;;;;;1.95;1.40;;;;;;;;;;8339274;28;20566;-61
2023/06/28 23:41:52;;;;;;;3.75;1.40;;;;;;;;;;8337327;28;20056;-62
2023/06/28 23:45:52;;;;;;;1.98;1.20;;;;;;;;;;8340024;28;20044;-61
2023/06/28 23:49:52;;;;;;;2.83;1.20;;;;;;;;;;8340029;28;20107;-61
2023/06/28 23:53:53;;;;;;;2.13;1.30;;;;;;;;;;8336565;28;20024;-61
2023/06/28 23:57:53;;;;;;;2.05;1.10;;;;;;;;;;8347060;28;20029;-61
